createdAt,value
2023-02-26T00:01:27.501Z,101748.34
2023-02-26T00:03:59.372Z,101767.88
2023-02-26T00:06:27.597Z,101768.81
2023-02-26T00:08:54.874Z,101777.03
2023-02-26T00:11:22.507Z,101793.09
2023-02-26T00:13:49.656Z,101796.50
2023-02-26T00:17:06.373Z,101803.84
2023-02-26T00:19:33.258Z,101805.66
2023-02-26T00:22:00.299Z,101814.28
2023-02-26T00:24:27.009Z,101814.31
2023-02-26T00:26:53.921Z,101820.47
2023-02-26T00:29:20.944Z,101807.00
2023-02-26T00:31:47.896Z,101816.81
2023-02-26T00:34:14.974Z,101809.06
2023-02-26T00:36:47.534Z,101831.44
2023-02-26T00:39:29.543Z,101819.88
2023-02-26T00:41:56.478Z,101845.00
2023-02-26T00:44:23.492Z,101835.78
2023-02-26T00:47:04.023Z,101855.91
2023-02-26T00:50:05.865Z,101860.59
2023-02-26T00:52:55.140Z,101867.69
2023-02-26T00:55:25.523Z,101878.31
2023-02-26T00:57:52.892Z,101873.09
2023-02-26T01:00:20.706Z,101884.72
2023-02-26T01:02:48.183Z,101890.72
2023-02-26T01:05:15.870Z,101893.09
2023-02-26T01:08:19.522Z,101901.88
2023-02-26T01:10:46.614Z,101891.06
2023-02-26T01:13:13.557Z,101885.88
2023-02-26T01:15:47.577Z,101893.97
2023-02-26T01:18:18.707Z,101896.41
2023-02-26T01:20:51.126Z,101887.63
2023-02-26T01:23:26.824Z,101889.81
2023-02-26T01:25:59.676Z,101888.91
2023-02-26T01:28:27.131Z,101903.06
2023-02-26T01:31:04.033Z,101904.94
2023-02-26T01:33:40.283Z,101913.22
2023-02-26T01:36:17.885Z,101925.25
2023-02-26T01:39:00.579Z,101936.28
2023-02-26T01:41:32.633Z,101939.88
2023-02-26T01:44:08.421Z,101937.00
2023-02-26T01:46:50.348Z,101941.41
2023-02-26T01:49:18.915Z,101940.84
2023-02-26T01:52:01.457Z,101956.59
2023-02-26T01:54:34.225Z,101950.69
2023-02-26T01:57:11.296Z,101962.81
2023-02-26T01:59:42.054Z,101953.31
2023-02-26T02:02:11.055Z,101956.34
2023-02-26T02:04:39.035Z,101973.06
2023-02-26T02:07:06.828Z,101980.06
2023-02-26T02:09:34.786Z,101970.59
2023-02-26T02:12:31.947Z,101973.09
2023-02-26T02:15:11.586Z,101955.13
2023-02-26T02:17:50.341Z,101946.75
2023-02-26T02:20:16.852Z,101958.13
2023-02-26T02:23:01.755Z,101955.47
2023-02-26T02:25:51.587Z,101955.44
2023-02-26T02:28:57.347Z,101956.50
2023-02-26T02:31:31.784Z,101960.13
2023-02-26T02:34:13.205Z,101967.66
2023-02-26T02:36:46.303Z,101959.06
2023-02-26T02:39:29.230Z,101967.84
2023-02-26T02:42:03.791Z,101969.66
2023-02-26T02:44:34.216Z,101968.72
2023-02-26T02:47:01.954Z,101965.31
2023-02-26T02:49:39.541Z,101973.31
2023-02-26T02:52:14.040Z,101967.34
2023-02-26T02:55:10.696Z,101992.31
2023-02-26T02:57:46.278Z,102000.16
2023-02-26T03:00:15.751Z,101994.75
2023-02-26T03:03:04.699Z,102000.06
2023-02-26T03:05:31.416Z,102009.03
2023-02-26T03:08:06.546Z,102027.72
2023-02-26T03:10:33.807Z,102027.88
2023-02-26T03:13:00.583Z,102036.09
2023-02-26T03:15:39.050Z,102045.88
2023-02-26T03:18:22.462Z,102061.06
2023-02-26T03:21:00.130Z,102059.22
2023-02-26T03:23:59.378Z,102076.34
2023-02-26T03:26:37.830Z,102082.84
2023-02-26T03:29:15.164Z,102085.50
2023-02-26T03:31:47.750Z,102093.72
2023-02-26T03:34:28.726Z,102110.38
2023-02-26T03:37:01.322Z,102116.59
2023-02-26T03:39:39.318Z,102106.94
2023-02-26T03:42:11.612Z,102106.25
2023-02-26T03:44:53.107Z,102095.41
2023-02-26T03:47:20.504Z,102090.28
2023-02-26T03:50:09.832Z,102109.03
2023-02-26T03:52:41.453Z,102116.97
2023-02-26T03:55:24.157Z,102125.78
2023-02-26T03:57:50.838Z,102110.00
2023-02-26T04:00:18.529Z,102134.06
2023-02-26T04:03:28.452Z,102141.25
2023-02-26T04:05:55.834Z,102145.63
2023-02-26T04:08:23.409Z,102151.91
2023-02-26T04:11:11.255Z,102158.13
2023-02-26T04:13:38.457Z,102158.94
2023-02-26T04:16:05.500Z,102160.53
2023-02-26T04:18:32.423Z,102164.16
2023-02-26T04:20:59.129Z,102171.31
2023-02-26T04:23:25.851Z,102177.53
2023-02-26T04:25:52.573Z,102178.41
2023-02-26T04:28:19.255Z,102187.31
2023-02-26T04:30:46.030Z,102191.72
2023-02-26T04:33:14.088Z,102193.41
2023-02-26T04:35:40.795Z,102200.56
2023-02-26T04:38:07.607Z,102198.88
2023-02-26T04:40:34.300Z,102208.69
2023-02-26T04:43:03.772Z,102215.78
2023-02-26T04:45:30.436Z,102243.47
2023-02-26T04:47:57.174Z,102237.22
2023-02-26T04:50:23.867Z,102239.94
2023-02-26T04:52:50.583Z,102245.13
2023-02-26T04:55:17.541Z,102239.91
2023-02-26T04:57:44.263Z,102241.63
2023-02-26T05:00:11.987Z,102243.44
2023-02-26T05:02:38.762Z,102251.44
2023-02-26T05:05:05.724Z,102247.84
2023-02-26T05:07:32.368Z,102245.28
2023-02-26T05:09:59.017Z,102242.66
2023-02-26T05:12:25.844Z,102251.56
2023-02-26T05:14:52.544Z,102258.69
2023-02-26T05:17:19.192Z,102255.16
2023-02-26T05:19:45.907Z,102269.34
2023-02-26T05:22:12.670Z,102278.16
2023-02-26T05:24:39.391Z,102282.56
2023-02-26T05:27:06.676Z,102281.69
2023-02-26T05:29:33.357Z,102278.16
2023-02-26T05:32:00.016Z,102279.03
2023-02-26T05:34:26.799Z,102291.56
2023-02-26T05:36:53.419Z,102292.47
2023-02-26T05:39:20.231Z,102296.88
2023-02-26T05:41:47.146Z,102310.22
2023-02-26T05:44:13.850Z,102308.47
2023-02-26T05:46:40.723Z,102302.25
2023-02-26T05:49:07.401Z,102306.72
2023-02-26T05:51:34.202Z,102305.88
2023-02-26T05:54:01.088Z,102311.19
2023-02-26T05:56:27.792Z,102322.78
2023-02-26T05:58:54.496Z,102325.50
2023-02-26T06:01:21.190Z,102329.97
2023-02-26T06:03:47.854Z,102328.19
2023-02-26T06:06:18.084Z,102337.09
2023-02-26T06:08:46.111Z,102348.69
2023-02-26T06:11:13.132Z,102348.69
2023-02-26T06:13:40.253Z,102349.69
2023-02-26T06:16:07.311Z,102354.13
2023-02-26T06:18:34.192Z,102364.81
2023-02-26T06:21:01.808Z,102365.72
2023-02-26T06:23:28.432Z,102371.06
2023-02-26T06:25:55.180Z,102373.72
2023-02-26T06:28:24.516Z,102378.19
2023-02-26T06:30:53.371Z,102379.06
2023-02-26T06:33:20.359Z,102388.88
2023-02-26T06:35:48.215Z,102396.84
2023-02-26T06:38:15.398Z,102401.25
2023-02-26T06:40:42.503Z,102405.66
2023-02-26T06:43:09.170Z,102401.19
2023-02-26T06:45:36.115Z,102399.41
2023-02-26T06:48:04.066Z,102397.59
2023-02-26T06:50:31.536Z,102404.66
2023-02-26T06:52:58.236Z,102408.19
2023-02-26T06:55:27.915Z,102412.69
2023-02-26T06:57:55.110Z,102408.06
2023-02-26T07:00:22.824Z,102409.00
2023-02-26T07:02:50.944Z,102417.84
2023-02-26T07:05:17.928Z,102419.59
2023-02-26T07:07:44.721Z,102421.25
2023-02-26T07:10:12.918Z,102422.03
2023-02-26T07:12:39.619Z,102421.75
2023-02-26T07:15:07.328Z,102411.75
2023-02-26T07:17:34.033Z,102413.91
2023-02-26T07:20:06.229Z,102399.53
2023-02-26T07:22:33.907Z,102388.50
2023-02-26T07:25:00.712Z,102393.78
2023-02-26T07:27:27.723Z,102387.78
2023-02-26T07:29:54.456Z,102375.44
2023-02-26T07:32:21.967Z,102378.56
2023-02-26T07:34:48.706Z,102381.25
2023-02-26T07:37:15.452Z,102382.97
2023-02-26T07:39:42.240Z,102378.38
2023-02-26T07:42:09.461Z,102388.03
2023-02-26T07:44:36.116Z,102390.84
2023-02-26T07:47:03.286Z,102390.97
2023-02-26T07:49:29.992Z,102394.44
2023-02-26T07:51:56.649Z,102385.75
2023-02-26T07:54:23.311Z,102395.97
2023-02-26T07:56:50.593Z,102388.34
2023-02-26T07:59:17.472Z,102383.50
2023-02-26T08:01:44.268Z,102385.00
2023-02-26T08:04:11.178Z,102390.06
2023-02-26T08:06:38.226Z,102394.19
2023-02-26T08:09:05.548Z,102396.88
2023-02-26T08:11:39.573Z,102385.72
2023-02-26T08:14:07.324Z,102416.75
2023-02-26T08:16:33.975Z,102439.22
2023-02-26T08:19:04.730Z,102469.00
2023-02-26T08:21:31.578Z,102481.38
2023-02-26T08:23:58.249Z,102482.47
2023-02-26T08:26:25.630Z,102493.97
2023-02-26T08:28:52.514Z,102503.06
2023-02-26T08:31:19.433Z,102508.38
2023-02-26T08:33:46.360Z,102511.09
2023-02-26T08:36:13.188Z,102526.38
2023-02-26T08:38:39.858Z,102527.16
2023-02-26T08:41:06.736Z,102537.13
2023-02-26T08:43:33.405Z,102538.91
2023-02-26T08:46:00.631Z,102541.44
2023-02-26T08:48:27.430Z,102553.00
2023-02-26T08:50:54.455Z,102551.34
2023-02-26T08:53:21.288Z,102556.72
2023-02-26T08:55:50.248Z,102554.91
2023-02-26T08:58:17.627Z,102557.47
2023-02-26T09:00:44.981Z,102547.25
2023-02-26T09:03:11.949Z,102551.59
2023-02-26T09:05:39.057Z,102563.69
2023-02-26T09:08:20.612Z,102553.84
2023-02-26T09:10:47.812Z,102553.97
2023-02-26T09:13:14.486Z,102561.09
2023-02-26T09:15:41.459Z,102568.06
2023-02-26T09:18:15.237Z,102575.00
2023-02-26T09:20:43.684Z,102574.44
2023-02-26T09:23:10.439Z,102586.84
2023-02-26T09:25:37.445Z,102575.03
2023-02-26T09:28:04.789Z,102583.97
2023-02-26T09:30:31.928Z,102584.13
2023-02-26T09:32:58.872Z,102582.56
2023-02-26T09:35:25.745Z,102590.44
2023-02-26T09:37:52.443Z,102596.59
2023-02-26T09:40:39.350Z,102602.47
2023-02-26T09:43:24.830Z,102600.94
2023-02-26T09:45:53.777Z,102592.00
2023-02-26T09:48:21.783Z,102592.00
2023-02-26T09:50:52.958Z,102587.19
2023-02-26T09:53:28.060Z,102589.09
2023-02-26T09:56:01.553Z,102590.91
2023-02-26T09:58:38.933Z,102595.47
2023-02-26T10:01:43.835Z,102594.13
2023-02-26T10:04:22.032Z,102593.84
2023-02-26T10:07:20.352Z,102589.69
2023-02-26T10:10:20.206Z,102596.78
2023-02-26T10:12:51.366Z,102602.97
2023-02-26T10:15:32.343Z,102600.31
2023-02-26T10:18:09.539Z,102612.56
2023-02-26T10:20:44.947Z,102610.81
2023-02-26T10:23:50.334Z,102614.53
2023-02-26T10:26:23.944Z,102618.47
2023-02-26T10:28:56.833Z,102617.22
2023-02-26T10:31:30.013Z,102603.56
2023-02-26T10:34:11.908Z,102611.75
2023-02-26T10:37:12.992Z,102616.16
2023-02-26T10:39:51.826Z,102603.00
2023-02-26T10:42:26.107Z,102601.19
2023-02-26T10:45:15.075Z,102598.19
2023-02-26T10:48:12.899Z,102607.09
2023-02-26T10:50:48.593Z,102604.06
2023-02-26T10:53:15.419Z,102614.88
2023-02-26T10:55:51.529Z,102621.22
2023-02-26T10:58:23.684Z,102608.59
2023-02-26T11:00:53.934Z,102615.63
2023-02-26T11:03:34.651Z,102607.25
2023-02-26T11:06:06.711Z,102609.25
2023-02-26T11:08:45.338Z,102620.56
2023-02-26T11:11:40.499Z,102603.91
2023-02-26T11:14:08.600Z,102602.97
2023-02-26T11:16:41.951Z,102597.50
2023-02-26T11:19:09.224Z,102592.06
2023-02-26T11:21:40.898Z,102608.81
2023-02-26T11:24:21.762Z,102607.00
2023-02-26T11:26:51.798Z,102628.28
2023-02-26T11:29:21.512Z,102621.34
2023-02-26T11:31:53.012Z,102616.97
2023-02-26T11:34:24.141Z,102618.50
2023-02-26T11:36:52.014Z,102622.41
2023-02-26T11:39:25.419Z,102623.47
2023-02-26T11:41:55.560Z,102623.34
2023-02-26T11:44:35.171Z,102616.72
2023-02-26T11:47:07.176Z,102618.13
2023-02-26T11:49:34.373Z,102608.09
2023-02-26T11:52:28.155Z,102607.63
2023-02-26T11:55:02.343Z,102594.50
2023-02-26T11:57:31.552Z,102589.97
2023-02-26T12:00:01.777Z,102585.00
2023-02-26T12:02:36.859Z,102573.72
2023-02-26T12:05:06.755Z,102568.41
2023-02-26T12:07:33.734Z,102556.78
2023-02-26T12:10:00.518Z,102541.84
2023-02-26T12:12:55.248Z,102532.69
2023-02-26T12:15:39.262Z,102532.25
2023-02-26T12:18:12.378Z,102536.91
2023-02-26T12:20:45.118Z,102519.31
2023-02-26T12:23:32.962Z,102532.50
2023-02-26T12:26:08.638Z,102520.56
2023-02-26T12:28:51.923Z,102540.84
2023-02-26T12:31:43.266Z,102549.34
2023-02-26T12:34:23.113Z,102517.41
2023-02-26T12:37:05.025Z,102512.75
2023-02-26T12:39:46.926Z,102506.56
2023-02-26T12:42:25.857Z,102528.31
2023-02-26T12:45:06.270Z,102557.19
2023-02-26T12:47:48.674Z,102546.03
2023-02-26T12:50:41.554Z,102530.19
2023-02-26T12:53:29.999Z,102555.22
2023-02-26T12:56:33.664Z,102552.50
2023-02-26T12:59:19.943Z,102547.50
2023-02-26T13:02:05.497Z,102582.66
2023-02-26T13:04:53.381Z,102595.88
2023-02-26T13:07:52.215Z,102620.44
2023-02-26T13:10:18.809Z,102625.97
2023-02-26T13:13:07.384Z,102614.44
2023-02-26T13:15:33.966Z,102600.44
2023-02-26T13:18:30.727Z,102568.59
2023-02-26T13:21:13.518Z,102541.78
2023-02-26T13:23:51.704Z,102547.38
2023-02-26T13:26:19.749Z,102560.75
2023-02-26T13:29:06.127Z,102546.84
2023-02-26T13:31:39.331Z,102531.94
2023-02-26T13:34:13.807Z,102533.09
2023-02-26T13:36:40.952Z,102525.53
2023-02-26T13:39:13.872Z,102495.97
2023-02-26T13:42:03.454Z,102517.97
2023-02-26T13:44:33.090Z,102517.16
2023-02-26T13:47:45.623Z,102513.50
2023-02-26T13:50:24.546Z,102508.00
2023-02-26T13:53:16.477Z,102479.38
2023-02-26T13:55:47.314Z,102496.06
2023-02-26T13:58:24.508Z,102491.38
2023-02-26T14:01:04.034Z,102490.53
2023-02-26T14:03:36.083Z,102515.09
2023-02-26T14:06:40.206Z,102540.16
2023-02-26T14:09:31.364Z,102519.97
2023-02-26T14:12:02.247Z,102519.97
2023-02-26T14:14:45.663Z,102516.84
2023-02-26T14:17:12.299Z,102542.75
2023-02-26T14:20:08.642Z,102575.50
2023-02-26T14:22:41.714Z,102577.50
2023-02-26T14:25:28.163Z,102601.28
2023-02-26T14:28:29.546Z,102578.47
2023-02-26T14:31:11.694Z,102566.78
2023-02-26T14:33:57.941Z,102553.06
2023-02-26T14:36:35.592Z,102545.50
2023-02-26T14:39:06.422Z,102525.34
2023-02-26T14:41:39.124Z,102543.66
2023-02-26T14:44:21.007Z,102520.34
2023-02-26T14:46:49.730Z,102543.75
2023-02-26T14:49:27.815Z,102584.06
2023-02-26T14:52:16.050Z,102576.97
2023-02-26T14:54:45.655Z,102589.31
2023-02-26T14:57:35.965Z,102580.78
2023-02-26T15:00:31.695Z,102598.25
2023-02-26T15:03:22.442Z,102606.63
2023-02-26T15:06:07.935Z,102611.34
2023-02-26T15:09:05.404Z,102606.44
2023-02-26T15:12:03.075Z,102624.50
2023-02-26T15:14:38.711Z,102609.59
2023-02-26T15:17:36.363Z,102610.25
2023-02-26T15:20:26.927Z,102593.72
2023-02-26T15:23:11.739Z,102608.50
2023-02-26T15:25:42.179Z,102614.91
2023-02-26T15:28:17.997Z,102605.78
2023-02-26T15:30:48.750Z,102603.50
2023-02-26T15:33:19.494Z,102615.44
2023-02-26T15:35:48.945Z,102637.88
2023-02-26T15:38:16.213Z,102650.59
2023-02-26T15:40:43.478Z,102672.97
2023-02-26T15:43:15.732Z,102669.88
2023-02-26T15:45:48.150Z,102641.09
2023-02-26T15:48:21.806Z,102646.84
2023-02-26T15:50:54.613Z,102671.25
2023-02-26T15:53:30.898Z,102679.13
2023-02-26T15:56:00.365Z,102678.41
2023-02-26T15:58:53.477Z,102701.88
2023-02-26T16:01:25.331Z,102714.41
2023-02-26T16:03:56.618Z,102718.16
2023-02-26T16:06:36.216Z,102735.81
2023-02-26T16:09:06.118Z,102732.41
2023-02-26T16:11:36.779Z,102744.16
2023-02-26T16:14:05.228Z,102741.38
2023-02-26T16:16:45.180Z,102730.94
2023-02-26T16:19:20.951Z,102736.41
2023-02-26T16:21:48.939Z,102742.81
2023-02-26T16:24:19.572Z,102741.00
2023-02-26T16:26:56.081Z,102743.84
2023-02-26T16:29:30.034Z,102754.69
2023-02-26T16:31:59.577Z,102757.44
2023-02-26T16:34:45.933Z,102765.50
2023-02-26T16:37:33.883Z,102759.25
2023-02-26T16:40:12.820Z,102763.91
2023-02-26T16:42:52.716Z,102768.53
2023-02-26T16:45:37.835Z,102777.59
2023-02-26T16:48:19.165Z,102783.03
2023-02-26T16:51:00.828Z,102783.25
2023-02-26T16:53:45.232Z,102788.50
2023-02-26T16:56:16.839Z,102786.75
2023-02-26T16:58:47.779Z,102787.88
2023-02-26T17:01:18.818Z,102792.25
2023-02-26T17:03:55.913Z,102795.97
2023-02-26T17:06:23.063Z,102797.94
2023-02-26T17:08:52.650Z,102804.22
2023-02-26T17:11:33.278Z,102803.44
2023-02-26T17:14:24.353Z,102811.47
2023-02-26T17:16:52.329Z,102814.16
2023-02-26T17:19:20.484Z,102818.66
2023-02-26T17:21:50.398Z,102826.69
2023-02-26T17:24:21.415Z,102826.69
2023-02-26T17:26:48.812Z,102828.47
2023-02-26T17:29:23.493Z,102831.19
2023-02-26T17:31:51.485Z,102839.22
2023-02-26T17:34:21.246Z,102839.25
2023-02-26T17:36:49.264Z,102839.25
2023-02-26T17:39:16.321Z,102839.25
2023-02-26T17:41:44.539Z,102841.03
2023-02-26T17:44:12.231Z,102847.25
2023-02-26T17:46:39.055Z,102844.59
2023-02-26T17:49:06.329Z,102853.50
2023-02-26T17:51:33.564Z,102857.94
2023-02-26T17:54:00.670Z,102859.72
2023-02-26T17:56:33.512Z,102860.63
2023-02-26T17:59:04.148Z,102858.84
2023-02-26T18:01:31.662Z,102874.91
2023-02-26T18:04:00.877Z,102870.47
2023-02-26T18:06:33.356Z,102873.09
2023-02-26T18:09:01.071Z,102867.72
2023-02-26T18:11:29.081Z,102870.44
2023-02-26T18:13:56.853Z,102873.13
2023-02-26T18:16:32.035Z,102876.66
2023-02-26T18:18:59.797Z,102874.00
2023-02-26T18:21:27.337Z,102874.91
2023-02-26T18:23:57.580Z,102870.44
2023-02-26T18:26:27.878Z,102876.72
2023-02-26T18:28:55.703Z,102882.88
2023-02-26T18:31:24.815Z,102876.69
2023-02-26T18:33:51.666Z,102880.25
2023-02-26T18:36:29.825Z,102880.25
2023-02-26T18:39:02.202Z,102875.81
2023-02-26T18:41:30.912Z,102879.38
2023-02-26T18:43:57.641Z,102872.25
2023-02-26T18:46:25.433Z,102876.72
2023-02-26T18:48:52.120Z,102882.94
2023-02-26T18:51:18.951Z,102878.47
2023-02-26T18:53:45.748Z,102873.13
2023-02-26T18:56:12.935Z,102887.38
2023-02-26T18:58:40.604Z,102879.38
2023-02-26T19:01:07.549Z,102876.69
2023-02-26T19:03:34.297Z,102878.47
2023-02-26T19:06:06.368Z,102883.72
2023-02-26T19:08:33.301Z,102888.16
2023-02-26T19:11:00.289Z,102885.44
2023-02-26T19:13:27.192Z,102903.25
2023-02-26T19:15:53.901Z,102897.94
2023-02-26T19:18:21.159Z,102904.13
2023-02-26T19:20:47.958Z,102899.66
2023-02-26T19:23:14.707Z,102910.34
2023-02-26T19:25:42.732Z,102901.44
2023-02-26T19:28:09.857Z,102905.91
2023-02-26T19:30:38.453Z,102909.50
2023-02-26T19:33:05.930Z,102906.84
2023-02-26T19:35:33.098Z,102909.53
2023-02-26T19:37:59.756Z,102905.06
2023-02-26T19:40:28.234Z,102898.81
2023-02-26T19:42:55.279Z,102903.25
2023-02-26T19:45:22.178Z,102896.97
2023-02-26T19:47:48.832Z,102910.19
2023-02-26T19:50:16.791Z,102917.25
2023-02-26T19:52:43.554Z,102920.81
2023-02-26T19:55:14.582Z,102913.69
2023-02-26T19:57:41.467Z,102917.22
2023-02-26T20:00:08.936Z,102919.84
2023-02-26T20:02:35.668Z,102914.63
2023-02-26T20:05:03.791Z,102920.00
2023-02-26T20:07:30.435Z,102916.44
2023-02-26T20:09:57.236Z,102924.53
2023-02-26T20:12:23.977Z,102923.69
2023-02-26T20:14:51.049Z,102924.66
2023-02-26T20:17:17.707Z,102919.34
2023-02-26T20:19:44.796Z,102921.97
2023-02-26T20:22:11.743Z,102930.81
2023-02-26T20:24:38.404Z,102931.69
2023-02-26T20:27:07.103Z,102936.94
2023-02-26T20:29:33.902Z,102942.22
2023-02-26T20:32:00.895Z,102946.63
2023-02-26T20:34:27.828Z,102951.00
2023-02-26T20:36:55.811Z,102944.69
2023-02-26T20:39:23.713Z,102962.38
2023-02-26T20:41:50.837Z,102955.16
2023-02-26T20:44:20.125Z,102956.06
2023-02-26T20:46:47.122Z,102955.25
2023-02-26T20:49:13.824Z,102959.13
2023-02-26T20:51:42.035Z,102957.50
2023-02-26T20:54:10.433Z,102956.59
2023-02-26T20:56:37.101Z,102952.97
2023-02-26T20:59:03.763Z,102955.59
2023-02-26T21:01:35.581Z,102962.56
2023-02-26T21:04:07.525Z,102965.03
2023-02-26T21:06:35.158Z,102964.13
2023-02-26T21:09:03.028Z,102968.59
2023-02-26T21:11:31.472Z,102971.22
2023-02-26T21:13:59.303Z,102967.63
2023-02-26T21:16:28.498Z,102974.69
2023-02-26T21:18:56.724Z,102977.38
2023-02-26T21:21:23.882Z,102972.03
2023-02-26T21:23:53.007Z,102973.81
2023-02-26T21:26:23.630Z,102978.19
2023-02-26T21:28:50.646Z,102978.06
2023-02-26T21:31:19.534Z,102982.19
2023-02-26T21:33:46.633Z,102983.94
2023-02-26T21:36:14.117Z,102986.53
2023-02-26T21:38:40.925Z,102984.84
2023-02-26T21:41:07.722Z,102981.34
2023-02-26T21:43:34.426Z,102987.63
2023-02-26T21:46:01.261Z,102980.53
2023-02-26T21:48:27.967Z,102984.97
2023-02-26T21:50:56.582Z,102983.19
2023-02-26T21:53:23.946Z,102995.66
2023-02-26T21:55:50.909Z,102990.31
2023-02-26T21:58:17.697Z,102994.53
2023-02-26T22:00:44.710Z,102992.72
2023-02-26T22:03:11.507Z,103001.69
2023-02-26T22:05:38.179Z,103007.84
2023-02-26T22:08:04.953Z,102998.06
2023-02-26T22:10:32.267Z,103004.28
2023-02-26T22:12:59.009Z,102999.78
2023-02-26T22:15:25.903Z,103000.66
2023-02-26T22:17:52.630Z,102998.91
2023-02-26T22:20:19.609Z,102997.13
2023-02-26T22:22:46.454Z,102997.94
2023-02-26T22:25:13.520Z,102995.91
2023-02-26T22:27:40.251Z,103002.72
2023-02-26T22:30:08.056Z,103005.44
2023-02-26T22:32:35.155Z,102998.31
2023-02-26T22:35:01.934Z,103005.63
2023-02-26T22:37:28.721Z,103003.91
2023-02-26T22:39:55.466Z,103005.50
2023-02-26T22:42:22.438Z,103002.94
2023-02-26T22:44:49.085Z,103008.34
2023-02-26T22:47:15.957Z,103009.88
2023-02-26T22:49:42.699Z,103013.50
2023-02-26T22:52:10.834Z,103006.47
2023-02-26T22:54:39.019Z,103014.38
2023-02-26T22:57:06.273Z,103019.75
2023-02-26T22:59:33.025Z,103022.44
2023-02-26T23:01:59.786Z,103019.84
2023-02-26T23:04:26.731Z,103022.50
2023-02-26T23:06:53.402Z,103029.31
2023-02-26T23:09:20.150Z,103028.19
2023-02-26T23:11:47.320Z,103030.66
2023-02-26T23:14:14.052Z,103029.75
2023-02-26T23:16:40.779Z,103026.22
2023-02-26T23:19:07.830Z,103030.66
2023-02-26T23:21:34.637Z,103030.69
2023-02-26T23:24:01.426Z,103022.81
2023-02-26T23:26:28.487Z,103020.22
2023-02-26T23:28:55.201Z,103022.06
2023-02-26T23:31:22.292Z,103024.72
2023-02-26T23:33:48.968Z,103020.25
2023-02-26T23:36:15.945Z,103024.69
2023-02-26T23:38:42.830Z,103021.09
2023-02-26T23:41:09.815Z,103028.22
2023-02-26T23:43:36.486Z,103013.13
2023-02-26T23:46:03.204Z,103019.34
2023-02-26T23:48:30.063Z,103022.97
2023-02-26T23:50:56.776Z,103015.88
2023-02-26T23:53:23.603Z,103018.50
2023-02-26T23:55:52.550Z,103017.63
2023-02-26T23:58:19.280Z,103022.91
